createdAt,value
2023-05-10T00:00:45.127Z,1.04
2023-05-10T00:01:45.279Z,1.04
2023-05-10T00:02:45.479Z,1.04
2023-05-10T00:03:45.656Z,1.04
2023-05-10T00:04:45.683Z,1.04
2023-05-10T00:05:45.902Z,1.04
2023-05-10T00:06:45.980Z,1.04
2023-05-10T00:07:46.163Z,1.04
2023-05-10T00:08:46.242Z,1.04
2023-05-10T00:09:46.330Z,1.04
2023-05-10T00:10:46.480Z,1.04
2023-05-10T00:11:46.643Z,1.04
2023-05-10T00:12:46.819Z,1.04
2023-05-10T00:13:46.961Z,1.04
2023-05-10T00:14:47.080Z,1.04
2023-05-10T00:15:47.234Z,1.04
2023-05-10T00:16:47.364Z,1.04
2023-05-10T00:17:47.453Z,1.04
2023-05-10T00:18:47.573Z,1.04
2023-05-10T00:19:47.726Z,1.04
2023-05-10T00:20:47.836Z,1.04
2023-05-10T00:21:47.976Z,1.04
2023-05-10T00:22:48.113Z,1.04
2023-05-10T00:23:48.294Z,1.04
2023-05-10T00:24:48.378Z,1.04
2023-05-10T00:25:48.481Z,1.04
2023-05-10T00:26:48.582Z,1.04
2023-05-10T00:27:48.776Z,1.04
2023-05-10T00:28:48.906Z,1.04
2023-05-10T00:29:48.989Z,1.04
2023-05-10T00:30:49.154Z,1.04
2023-05-10T00:31:49.332Z,1.04
2023-05-10T00:32:49.534Z,1.04
2023-05-10T00:33:49.608Z,1.04
2023-05-10T00:34:49.742Z,1.04
2023-05-10T00:35:49.836Z,1.04
2023-05-10T00:36:49.968Z,1.04
2023-05-10T00:37:50.099Z,1.04
2023-05-10T00:38:50.216Z,1.04
2023-05-10T00:39:50.317Z,1.04
2023-05-10T00:40:50.469Z,1.04
2023-05-10T00:41:50.612Z,1.04
2023-05-10T00:42:50.754Z,1.04
2023-05-10T00:43:50.914Z,1.04
2023-05-10T00:44:51.019Z,1.04
2023-05-10T00:45:51.197Z,1.04
2023-05-10T00:46:51.265Z,1.04
2023-05-10T00:47:51.433Z,1.04
2023-05-10T00:48:51.530Z,1.04
2023-05-10T00:49:51.674Z,1.04
2023-05-10T00:50:51.813Z,1.04
2023-05-10T00:51:51.942Z,1.04
2023-05-10T00:52:52.109Z,1.04
2023-05-10T00:53:52.186Z,1.04
2023-05-10T00:54:52.352Z,1.04
2023-05-10T00:55:52.511Z,1.04
2023-05-10T00:56:52.619Z,1.04
2023-05-10T00:57:52.690Z,1.04
2023-05-10T00:58:52.842Z,1.04
2023-05-10T00:59:53.008Z,1.04
2023-05-10T01:00:53.160Z,1.04
2023-05-10T01:01:53.301Z,1.04
2023-05-10T01:02:53.502Z,1.04
2023-05-10T01:03:53.600Z,1.04
2023-05-10T01:04:53.728Z,1.04
2023-05-10T01:05:53.822Z,1.04
2023-05-10T01:06:53.961Z,1.04
2023-05-10T01:07:54.119Z,1.04
2023-05-10T01:08:54.259Z,1.04
2023-05-10T01:09:54.366Z,1.04
2023-05-10T01:10:54.506Z,1.04
2023-05-10T01:11:54.629Z,1.04
2023-05-10T01:12:54.778Z,1.04
2023-05-10T01:13:54.876Z,1.04
2023-05-10T01:14:54.974Z,1.04
2023-05-10T01:15:55.152Z,1.04
2023-05-10T01:16:55.273Z,1.04
2023-05-10T01:17:55.401Z,1.04
2023-05-10T01:18:55.471Z,1.04
2023-05-10T01:19:55.633Z,1.04
2023-05-10T01:20:55.728Z,1.04
2023-05-10T01:21:55.823Z,1.04
2023-05-10T01:22:55.989Z,1.04
2023-05-10T01:23:56.127Z,1.04
2023-05-10T01:24:56.250Z,1.04
2023-05-10T01:25:56.393Z,1.04
2023-05-10T01:26:56.537Z,1.04
2023-05-10T01:27:56.639Z,1.04
2023-05-10T01:28:56.805Z,1.04
2023-05-10T01:30:09.474Z,1.04
2023-05-10T01:30:57.087Z,1.04
2023-05-10T01:31:57.153Z,1.04
2023-05-10T01:32:57.338Z,1.04
2023-05-10T01:33:57.407Z,1.04
2023-05-10T01:34:57.533Z,1.04
2023-05-10T01:35:57.615Z,1.04
2023-05-10T01:36:57.714Z,1.04
2023-05-10T01:37:57.859Z,1.04
2023-05-10T01:38:57.952Z,1.04
2023-05-10T01:39:58.107Z,1.04
2023-05-10T01:40:58.214Z,1.04
2023-05-10T01:41:58.397Z,1.04
2023-05-10T01:42:58.481Z,1.04
2023-05-10T01:43:58.627Z,1.04
2023-05-10T01:44:58.777Z,1.04
2023-05-10T01:45:58.914Z,1.04
2023-05-10T01:46:59.114Z,1.04
2023-05-10T01:47:59.212Z,1.04
2023-05-10T01:48:59.306Z,1.04
2023-05-10T01:49:59.423Z,1.04
2023-05-10T01:50:59.549Z,1.04
2023-05-10T01:51:59.713Z,1.04
2023-05-10T01:52:59.849Z,1.04
2023-05-10T01:53:59.981Z,1.04
2023-05-10T01:55:00.197Z,1.04
2023-05-10T01:56:00.240Z,1.04
2023-05-10T01:57:00.409Z,1.04
2023-05-10T01:58:00.488Z,1.04
2023-05-10T01:59:00.637Z,1.04
2023-05-10T02:00:00.740Z,1.04
2023-05-10T02:01:00.924Z,1.04
2023-05-10T02:02:01.009Z,1.04
2023-05-10T02:03:01.239Z,1.04
2023-05-10T02:04:01.294Z,1.04
2023-05-10T02:05:01.393Z,1.04
2023-05-10T02:06:01.495Z,1.04
2023-05-10T02:07:01.681Z,1.04
2023-05-10T02:08:01.755Z,1.04
2023-05-10T02:09:01.858Z,1.04
2023-05-10T02:10:01.969Z,1.04
2023-05-10T02:11:02.118Z,1.04
2023-05-10T02:12:02.208Z,1.04
2023-05-10T02:13:02.376Z,1.04
2023-05-10T02:14:02.460Z,1.04
2023-05-10T02:15:02.562Z,1.04
2023-05-10T02:16:02.727Z,1.04
2023-05-10T02:17:02.824Z,1.04
2023-05-10T02:18:03.019Z,1.04
2023-05-10T02:19:03.143Z,1.04
2023-05-10T02:20:03.219Z,1.04
2023-05-10T02:21:03.398Z,1.04
2023-05-10T02:22:03.542Z,1.04
2023-05-10T02:23:03.708Z,1.04
2023-05-10T02:24:03.828Z,1.04
2023-05-10T02:25:03.949Z,1.04
2023-05-10T02:26:04.097Z,1.04
2023-05-10T02:27:04.246Z,1.04
2023-05-10T02:28:04.342Z,1.04
2023-05-10T02:29:04.485Z,1.04
2023-05-10T02:30:04.610Z,1.04
2023-05-10T02:31:04.760Z,1.04
2023-05-10T02:32:04.960Z,1.04
2023-05-10T02:33:05.032Z,1.04
2023-05-10T02:34:05.164Z,1.04
2023-05-10T02:35:05.299Z,1.04
2023-05-10T02:36:05.413Z,1.04
2023-05-10T02:37:05.566Z,1.04
2023-05-10T02:38:05.735Z,1.04
2023-05-10T02:39:05.812Z,1.04
2023-05-10T02:40:05.933Z,1.04
2023-05-10T02:41:06.073Z,1.04
2023-05-10T02:42:06.166Z,1.04
2023-05-10T02:43:06.266Z,2
2023-05-10T02:44:06.441Z,2
2023-05-10T02:45:06.538Z,2
2023-05-10T02:46:06.731Z,2
2023-05-10T02:47:06.783Z,2
2023-05-10T02:48:06.949Z,3.04
2023-05-10T02:49:07.047Z,3.04
2023-05-10T02:50:07.180Z,3.04
2023-05-10T02:51:07.284Z,4
2023-05-10T02:52:07.394Z,4
2023-05-10T02:53:07.555Z,5.04
2023-05-10T02:54:07.719Z,5.04
2023-05-10T02:55:07.831Z,6
2023-05-10T02:56:08.050Z,7.04
2023-05-10T02:57:08.111Z,8
2023-05-10T02:58:08.242Z,9.04
2023-05-10T02:59:08.390Z,10
2023-05-10T03:00:08.501Z,12
2023-05-10T03:01:08.680Z,13.04
2023-05-10T03:02:08.738Z,16
2023-05-10T03:03:08.919Z,18
2023-05-10T03:04:09.035Z,20
2023-05-10T03:05:09.162Z,22
2023-05-10T03:06:09.253Z,25.04
2023-05-10T03:07:09.364Z,29.04
2023-05-10T03:08:09.460Z,34
2023-05-10T03:09:09.566Z,40
2023-05-10T03:10:09.734Z,95.04
2023-05-10T03:11:09.822Z,108
2023-05-10T03:12:09.924Z,123.04
2023-05-10T03:13:10.085Z,141.04
2023-05-10T03:14:10.168Z,157.04
2023-05-10T03:15:10.278Z,173.12
2023-05-10T03:16:10.486Z,198.08
2023-05-10T03:17:10.487Z,221.12
2023-05-10T03:18:10.583Z,255.04
2023-05-10T03:19:10.743Z,284
2023-05-10T03:20:10.904Z,316
2023-05-10T03:21:10.980Z,357.12
2023-05-10T03:22:11.108Z,396.16
2023-05-10T03:23:11.240Z,437.12
2023-05-10T03:24:11.333Z,494.08
2023-05-10T03:25:11.431Z,542.08
2023-05-10T03:26:11.557Z,591.04
2023-05-10T03:27:11.708Z,656
2023-05-10T03:28:11.799Z,713.6
2023-05-10T03:29:11.954Z,773.12
2023-05-10T03:30:12.042Z,835.2
2023-05-10T03:31:12.245Z,898.56
2023-05-10T03:32:12.358Z,964.48
2023-05-10T03:33:12.500Z,1052.16
2023-05-10T03:34:12.615Z,1124.48
2023-05-10T03:35:12.777Z,1200
2023-05-10T03:36:12.945Z,1278.08
2023-05-10T03:37:13.008Z,1418.24
2023-05-10T03:38:13.167Z,1511.68
2023-05-10T03:39:13.263Z,1610.24
2023-05-10T03:40:13.409Z,1706.24
2023-05-10T03:41:13.567Z,1798.4
2023-05-10T03:42:13.735Z,1926.4
2023-05-10T03:43:13.885Z,2022.4
2023-05-10T03:44:14.018Z,2151.68
2023-05-10T03:45:14.199Z,2254.08
2023-05-10T03:46:14.349Z,2361.6
2023-05-10T03:47:14.417Z,2492.16
2023-05-10T03:48:14.645Z,2593.28
2023-05-10T03:49:14.725Z,2703.36
2023-05-10T03:50:15.036Z,2931.2
2023-05-10T03:51:14.963Z,3138.56
2023-05-10T03:52:15.096Z,3443.2
2023-05-10T03:53:15.191Z,3840
2023-05-10T03:54:15.341Z,4262.4
2023-05-10T03:55:15.481Z,4467.2
2023-05-10T03:56:15.621Z,4134.4
2023-05-10T03:57:15.752Z,4234.24
2023-05-10T03:58:15.903Z,6932.48
2023-05-10T03:59:16.088Z,8714.24
2023-05-10T04:00:16.424Z,9441.28
2023-05-10T04:01:16.317Z,9886.72
2023-05-10T04:02:16.505Z,10434.56
2023-05-10T04:03:16.576Z,11018.24
2023-05-10T04:04:16.729Z,11550.72
2023-05-10T04:05:16.809Z,12042.239
2023-05-10T04:06:17.065Z,12707.84
2023-05-10T04:07:17.095Z,13875.199
2023-05-10T04:08:17.239Z,14479.359
2023-05-10T04:09:17.352Z,15308.8
2023-05-10T04:10:17.809Z,15994.88
2023-05-10T04:11:17.609Z,16711.68
2023-05-10T04:12:17.835Z,17326.08
2023-05-10T04:13:17.976Z,18237.44
2023-05-10T04:14:18.103Z,18800.64
2023-05-10T04:15:18.223Z,19343.36
2023-05-10T04:16:18.335Z,19957.76
2023-05-10T04:17:18.443Z,20776.96
2023-05-10T04:18:18.587Z,21278.72
2023-05-10T04:19:18.727Z,21954.56
2023-05-10T04:20:19.024Z,22528
2023-05-10T04:21:19.061Z,23142.4
2023-05-10T04:22:19.143Z,23982.08
2023-05-10T04:23:19.285Z,24576
2023-05-10T04:24:19.408Z,25436.16
2023-05-10T04:25:19.544Z,26173.44
2023-05-10T04:26:19.659Z,26849.28
2023-05-10T04:27:19.760Z,27422.72
2023-05-10T04:28:19.889Z,27934.72
2023-05-10T04:29:20.009Z,28774.4
2023-05-10T04:30:20.156Z,29388.8
2023-05-10T04:31:20.398Z,29900.8
2023-05-10T04:32:20.405Z,30781.44
2023-05-10T04:33:20.506Z,31170.56
2023-05-10T04:34:20.657Z,31723.52
2023-05-10T04:35:20.813Z,32358.4
2023-05-10T04:36:20.879Z,32808.96
2023-05-10T04:37:21.018Z,33259.52
2023-05-10T04:38:21.165Z,33935.36
2023-05-10T04:39:21.274Z,34385.92
2023-05-10T04:40:21.419Z,35102.72
2023-05-10T04:41:21.559Z,35799.04
2023-05-10T04:42:21.679Z,36392.96
2023-05-10T04:43:21.768Z,37130.24
2023-05-10T04:44:21.871Z,37806.08
2023-05-10T04:45:21.983Z,38010.88
2023-05-10T04:46:22.190Z,38256.64
2023-05-10T04:47:22.292Z,39014.4
2023-05-10T04:48:22.378Z,39690.24
2023-05-10T04:49:22.507Z,40345.6
2023-05-10T04:50:22.656Z,40919.04
2023-05-10T04:51:22.743Z,41594.88
2023-05-10T04:52:22.849Z,42024.96
2023-05-10T04:53:23.018Z,41738.24
2023-05-10T04:54:23.146Z,39976.96
2023-05-10T04:55:23.256Z,38645.76
2023-05-10T04:56:23.390Z,34222.08
2023-05-10T04:57:23.499Z,31232
2023-05-10T04:58:23.651Z,35368.96
2023-05-10T04:59:23.800Z,37683.2
2023-05-10T05:00:23.952Z,37478.4
2023-05-10T05:01:24.178Z,38768.64
2023-05-10T05:02:24.288Z,40980.48
2023-05-10T05:03:24.403Z,42311.68
2023-05-10T05:04:24.514Z,46161.92
2023-05-10T05:05:24.621Z,47390.72
2023-05-10T05:06:24.716Z,48087.04
2023-05-10T05:07:24.863Z,48947.2
2023-05-10T05:08:24.986Z,50094.08
2023-05-10T05:09:25.090Z,50831.36
2023-05-10T05:10:25.223Z,52592.64
2023-05-10T05:11:25.320Z,53166.08
2023-05-10T05:12:25.484Z,54722.56
2023-05-10T05:13:25.802Z,55787.52
2023-05-10T05:14:25.742Z,56279.04
2023-05-10T05:15:25.875Z,56197.12
2023-05-10T05:16:26.059Z,56811.52
2023-05-10T05:17:26.161Z,58613.76
2023-05-10T05:18:26.273Z,59473.92
2023-05-10T05:19:26.447Z,60497.92
2023-05-10T05:20:26.546Z,61235.2
2023-05-10T05:21:26.690Z,62259.2
2023-05-10T05:22:26.843Z,63365.12
2023-05-10T05:23:26.988Z,62504.96
2023-05-10T05:24:27.091Z,61726.72
2023-05-10T05:25:27.208Z,60006.4
2023-05-10T05:26:27.384Z,54927.36
2023-05-10T05:27:27.458Z,51773.44
2023-05-10T05:28:27.629Z,51691.52
2023-05-10T05:29:27.742Z,53207.04
2023-05-10T05:30:27.876Z,55910.4
2023-05-10T05:31:28.053Z,57098.24
2023-05-10T05:32:28.219Z,63815.68
2023-05-10T05:33:28.280Z,65617.92
2023-05-10T05:34:28.399Z,66396.16
2023-05-10T05:35:28.579Z,63897.6
2023-05-10T05:36:28.742Z,61440
2023-05-10T05:37:28.823Z,61153.28
2023-05-10T05:38:28.925Z,62627.84
2023-05-10T05:39:29.065Z,64512
2023-05-10T05:40:29.222Z,66314.24
2023-05-10T05:41:29.320Z,69754.88
2023-05-10T05:42:29.428Z,73154.56
2023-05-10T05:43:29.565Z,74137.6
2023-05-10T05:44:29.796Z,75325.44
2023-05-10T05:45:29.851Z,75038.72
2023-05-10T05:46:29.920Z,74670.08
2023-05-10T05:47:30.082Z,75489.28
2023-05-10T05:48:30.192Z,77619.2
2023-05-10T05:49:30.329Z,69959.68
2023-05-10T05:50:30.490Z,46448.64
2023-05-10T05:51:30.600Z,57425.92
2023-05-10T05:52:30.745Z,72458.24
2023-05-10T05:53:30.892Z,72949.76
2023-05-10T05:54:31.049Z,70983.68
2023-05-10T05:55:31.205Z,64921.6
2023-05-10T05:56:31.379Z,66519.04
2023-05-10T05:57:31.498Z,62259.2
2023-05-10T05:58:31.689Z,70041.6
2023-05-10T05:59:31.746Z,67584
2023-05-10T06:00:31.859Z,65003.52
2023-05-10T06:01:32.010Z,68730.88
2023-05-10T06:02:32.131Z,63447.04
2023-05-10T06:03:32.288Z,62382.08
2023-05-10T06:04:32.397Z,63569.92
2023-05-10T06:05:32.410Z,66928.64
2023-05-10T06:06:32.519Z,69672.96
2023-05-10T06:07:32.665Z,60456.96
2023-05-10T06:08:32.823Z,51814.4
2023-05-10T06:09:32.985Z,55664.64
2023-05-10T06:10:33.129Z,42762.24
2023-05-10T06:11:33.252Z,37847.04
2023-05-10T06:12:33.316Z,33075.2
2023-05-10T06:13:33.832Z,32727.04
2023-05-10T06:14:33.582Z,32686.08
2023-05-10T06:15:33.736Z,32153.6
2023-05-10T06:16:33.866Z,34304
2023-05-10T06:17:34.010Z,37744.64
2023-05-10T06:18:34.140Z,35717.12
2023-05-10T06:19:34.244Z,30248.96
2023-05-10T06:20:34.347Z,28426.24
2023-05-10T06:21:34.446Z,27136
2023-05-10T06:22:34.543Z,26664.96
2023-05-10T06:23:34.673Z,26521.6
2023-05-10T06:24:34.753Z,26583.04
2023-05-10T06:25:34.891Z,26767.36
2023-05-10T06:26:34.995Z,27361.28
2023-05-10T06:27:35.100Z,28528.64
2023-05-10T06:28:35.203Z,33566.72
2023-05-10T06:29:35.312Z,38645.76
2023-05-10T06:30:35.456Z,34918.4
2023-05-10T06:31:35.642Z,31764.48
2023-05-10T06:32:35.789Z,28200.96
2023-05-10T06:33:35.912Z,27996.16
2023-05-10T06:34:36.030Z,28835.84
2023-05-10T06:35:36.181Z,29224.96
2023-05-10T06:36:36.309Z,28508.16
2023-05-10T06:37:36.434Z,28364.8
2023-05-10T06:38:36.525Z,28712.96
2023-05-10T06:39:36.668Z,29163.52
2023-05-10T06:40:36.797Z,30679.04
2023-05-10T06:41:36.940Z,36249.6
2023-05-10T06:42:37.092Z,35041.28
2023-05-10T06:43:37.228Z,32952.32
2023-05-10T06:44:37.392Z,32645.12
2023-05-10T06:45:37.558Z,32849.92
2023-05-10T06:46:37.781Z,33505.28
2023-05-10T06:47:39.115Z,32276.48
2023-05-10T06:48:37.944Z,31211.52
2023-05-10T06:49:38.048Z,31477.76
2023-05-10T06:50:38.204Z,32071.68
2023-05-10T06:51:38.354Z,33177.6
2023-05-10T06:52:38.510Z,33566.72
2023-05-10T06:53:38.600Z,34856.96
2023-05-10T06:54:38.699Z,44236.8
2023-05-10T06:55:38.850Z,63201.28
2023-05-10T06:56:39.010Z,59760.64
2023-05-10T06:57:39.162Z,52510.72
2023-05-10T06:58:39.280Z,53248
2023-05-10T06:59:39.433Z,51609.6
2023-05-10T07:00:39.557Z,40017.92
2023-05-10T07:01:39.666Z,27811.84
2023-05-10T07:02:39.854Z,26255.36
2023-05-10T07:03:39.920Z,26808.32
2023-05-10T07:04:40.137Z,63365.12
2023-05-10T07:05:40.220Z,67010.56
2023-05-10T07:06:40.343Z,60866.56
2023-05-10T07:07:40.475Z,52797.44
2023-05-10T07:08:40.571Z,32624.64
2023-05-10T07:09:40.664Z,28631.04
2023-05-10T07:10:40.834Z,27402.24
2023-05-10T07:11:40.974Z,26398.72
2023-05-10T07:12:41.123Z,26173.44
2023-05-10T07:13:41.210Z,26091.52
2023-05-10T07:14:41.324Z,25989.12
2023-05-10T07:15:41.484Z,25968.64
2023-05-10T07:16:41.668Z,26071.04
2023-05-10T07:17:43.326Z,26357.76
2023-05-10T07:18:42.014Z,26849.28
2023-05-10T07:19:42.043Z,27484.16
2023-05-10T07:20:42.154Z,27770.88
2023-05-10T07:21:42.282Z,28426.24
2023-05-10T07:22:42.397Z,29573.12
2023-05-10T07:23:44.899Z,28897.28
2023-05-10T07:24:42.645Z,29388.8
2023-05-10T07:25:42.754Z,28446.72
2023-05-10T07:26:42.969Z,27504.64
2023-05-10T07:27:43.028Z,27811.84
2023-05-10T07:28:43.158Z,28692.48
2023-05-10T07:29:43.300Z,30453.76
2023-05-10T07:30:43.432Z,32112.64
2023-05-10T07:31:43.552Z,34734.08
2023-05-10T07:32:43.678Z,38502.4
2023-05-10T07:33:43.731Z,39956.48
2023-05-10T07:34:43.822Z,34856.96
2023-05-10T07:35:43.912Z,52183.04
2023-05-10T07:36:44.050Z,53329.92
2023-05-10T07:37:44.154Z,47185.92
2023-05-10T07:38:44.340Z,33648.64
2023-05-10T07:39:44.473Z,29614.08
2023-05-10T07:40:44.561Z,28385.28
2023-05-10T07:41:44.728Z,27504.64
2023-05-10T07:42:44.829Z,26972.16
2023-05-10T07:43:45.016Z,26767.36
2023-05-10T07:44:45.124Z,27299.84
2023-05-10T07:45:45.325Z,28282.88
2023-05-10T07:46:45.380Z,29532.16
2023-05-10T07:47:45.594Z,30617.6
2023-05-10T07:48:45.692Z,31334.4
2023-05-10T07:49:45.910Z,32235.52
2023-05-10T07:50:45.984Z,32215.04
2023-05-10T07:51:46.155Z,32358.4
2023-05-10T07:52:46.306Z,31907.84
2023-05-10T07:53:46.453Z,30945.28
2023-05-10T07:54:46.615Z,30023.68
2023-05-10T07:55:46.748Z,29143.04
2023-05-10T07:56:46.845Z,28098.56
2023-05-10T07:57:47.010Z,27217.92
2023-05-10T07:58:47.160Z,26603.52
2023-05-10T07:59:47.310Z,25968.64
2023-05-10T08:00:47.434Z,25415.68
2023-05-10T08:01:47.577Z,24576
2023-05-10T08:02:47.807Z,23367.68
2023-05-10T08:03:47.897Z,22528
2023-05-10T08:04:47.918Z,22077.44
2023-05-10T08:05:48.063Z,21831.68
2023-05-10T08:06:48.239Z,21995.52
2023-05-10T08:07:48.372Z,22282.24
2023-05-10T08:08:48.538Z,23285.76
2023-05-10T08:09:48.669Z,24432.64
2023-05-10T08:10:48.854Z,25190.4
2023-05-10T08:11:48.930Z,25436.16
2023-05-10T08:12:49.093Z,25620.48
2023-05-10T08:13:49.224Z,24514.56
2023-05-10T08:14:49.390Z,23920.64
2023-05-10T08:15:49.583Z,23306.24
2023-05-10T08:16:49.633Z,22343.68
2023-05-10T08:17:49.901Z,21422.08
2023-05-10T08:18:49.896Z,20254.72
2023-05-10T08:19:50.028Z,19281.92
2023-05-10T08:20:50.145Z,18278.4
2023-05-10T08:21:50.679Z,17602.56
2023-05-10T08:22:51.873Z,17192.96
2023-05-10T08:23:50.552Z,17029.12
2023-05-10T08:24:50.693Z,17141.76
2023-05-10T08:25:50.801Z,17305.6
2023-05-10T08:26:50.894Z,17356.8
2023-05-10T08:27:51.011Z,17377.28
2023-05-10T08:28:51.168Z,17264.64
2023-05-10T08:29:51.250Z,17070.08
2023-05-10T08:30:51.402Z,16803.84
2023-05-10T08:31:51.531Z,16465.92
2023-05-10T08:32:51.657Z,16209.92
2023-05-10T08:33:51.743Z,16107.52
2023-05-10T08:34:51.820Z,16158.72
2023-05-10T08:35:51.976Z,16476.16
2023-05-10T08:36:52.117Z,17029.12
2023-05-10T08:37:52.269Z,17612.8
2023-05-10T08:38:52.429Z,18227.2
2023-05-10T08:39:52.637Z,18944
2023-05-10T08:40:52.693Z,19200
2023-05-10T08:41:52.819Z,19363.84
2023-05-10T08:42:52.989Z,19251.2
2023-05-10T08:43:53.146Z,18933.76
2023-05-10T08:44:53.271Z,18268.16
2023-05-10T08:45:53.397Z,17776.64
2023-05-10T08:46:53.497Z,17479.68
2023-05-10T08:47:53.675Z,17346.56
2023-05-10T08:48:53.779Z,17254.4
2023-05-10T08:49:53.890Z,17029.12
2023-05-10T08:50:54.039Z,16578.56
2023-05-10T08:51:54.204Z,15994.88
2023-05-10T08:52:54.369Z,15370.239
2023-05-10T08:53:54.521Z,14868.479
2023-05-10T08:54:54.663Z,14366.72
2023-05-10T08:55:54.783Z,13608.96
2023-05-10T08:56:54.939Z,13117.439
2023-05-10T08:57:55.155Z,12769.279
2023-05-10T08:58:55.271Z,12441.6
2023-05-10T08:59:55.461Z,12236.8
2023-05-10T09:00:55.708Z,12103.68
2023-05-10T09:01:55.725Z,12062.72
2023-05-10T09:02:55.962Z,12001.279
2023-05-10T09:03:55.993Z,12062.72
2023-05-10T09:04:56.192Z,12165.12
2023-05-10T09:05:56.217Z,12308.479
2023-05-10T09:06:56.370Z,12462.08
2023-05-10T09:07:56.519Z,12605.439
2023-05-10T09:08:56.626Z,12769.279
2023-05-10T09:09:56.725Z,12810.239
2023-05-10T09:10:56.884Z,12738.56
2023-05-10T09:11:57.061Z,12595.2
2023-05-10T09:12:59.181Z,12544
2023-05-10T09:13:57.342Z,12533.76
2023-05-10T09:14:57.458Z,12533.76
2023-05-10T09:16:00.320Z,12431.359
2023-05-10T09:16:57.668Z,12339.2
2023-05-10T09:17:57.744Z,12257.279
2023-05-10T09:18:57.919Z,12083.2
2023-05-10T09:19:57.991Z,11745.279
2023-05-10T09:20:58.091Z,11673.6
2023-05-10T09:21:58.238Z,11530.239
2023-05-10T09:22:58.396Z,11304.96
2023-05-10T09:23:58.505Z,10905.6
2023-05-10T09:24:58.647Z,10316.8
2023-05-10T09:25:58.797Z,9886.72
2023-05-10T09:26:58.906Z,9615.359
2023-05-10T09:27:59.051Z,9610.24
2023-05-10T09:28:59.177Z,9799.68
2023-05-10T09:29:59.313Z,10009.6
2023-05-10T09:30:59.494Z,9953.279
2023-05-10T09:31:59.574Z,9794.56
2023-05-10T09:32:59.927Z,9702.399
2023-05-10T09:33:59.823Z,9896.96
2023-05-10T09:34:59.929Z,10091.52
2023-05-10T09:36:00.020Z,10158.08
2023-05-10T09:37:00.169Z,10117.12
2023-05-10T09:38:00.356Z,9943.04
2023-05-10T09:39:00.492Z,9743.359
2023-05-10T09:40:00.640Z,9472
2023-05-10T09:41:00.789Z,9077.76
2023-05-10T09:42:00.952Z,8811.52
2023-05-10T09:43:01.073Z,8606.72
2023-05-10T09:44:01.219Z,8550.399
2023-05-10T09:45:01.425Z,8524.8
2023-05-10T09:46:01.565Z,8514.56
2023-05-10T09:47:01.652Z,8504.319
2023-05-10T09:48:01.886Z,8596.479
2023-05-10T09:49:01.971Z,8898.56
2023-05-10T09:50:02.102Z,9256.96
2023-05-10T09:51:02.213Z,9446.399
2023-05-10T09:52:02.356Z,9651.2
2023-05-10T09:53:02.494Z,9896.96
2023-05-10T09:54:02.609Z,10147.84
2023-05-10T09:55:02.758Z,10506.24
2023-05-10T09:56:02.915Z,10772.479
2023-05-10T09:57:03.059Z,11110.399
2023-05-10T09:58:03.190Z,11397.12
2023-05-10T09:59:03.296Z,11755.52
2023-05-10T10:00:03.434Z,11919.359
2023-05-10T10:01:03.680Z,11857.92
2023-05-10T10:02:03.740Z,11438.08
2023-05-10T10:03:03.802Z,11120.64
2023-05-10T10:04:03.938Z,11048.96
2023-05-10T10:05:04.105Z,11151.359
2023-05-10T10:06:04.172Z,11233.279
2023-05-10T10:07:04.392Z,11089.92
2023-05-10T10:08:04.482Z,10915.84
2023-05-10T10:09:04.617Z,10752
2023-05-10T10:10:04.730Z,10721.279
2023-05-10T10:11:04.902Z,10823.68
2023-05-10T10:12:05.041Z,11008
2023-05-10T10:13:05.200Z,11233.279
2023-05-10T10:14:05.349Z,11325.439
2023-05-10T10:15:05.489Z,11151.359
2023-05-10T10:16:05.648Z,10915.84
2023-05-10T10:17:08.501Z,10608.64
2023-05-10T10:18:05.942Z,10337.279
2023-05-10T10:19:05.975Z,9937.92
2023-05-10T10:20:06.057Z,9856
2023-05-10T10:21:06.180Z,9748.479
2023-05-10T10:22:06.341Z,9646.08
2023-05-10T10:23:06.442Z,9518.08
2023-05-10T10:24:06.572Z,9328.64
2023-05-10T10:25:06.703Z,9139.2
2023-05-10T10:26:06.824Z,9057.28
2023-05-10T10:27:06.955Z,9149.439
2023-05-10T10:28:07.112Z,9354.24
2023-05-10T10:29:07.265Z,9676.8
2023-05-10T10:30:07.415Z,9825.279
2023-05-10T10:31:07.584Z,9774.08
2023-05-10T10:32:07.660Z,9589.76
2023-05-10T10:33:16.790Z,9410.56
2023-05-10T10:34:07.956Z,9338.88
2023-05-10T10:35:08.044Z,9318.399
2023-05-10T10:36:08.162Z,9400.319
2023-05-10T10:37:08.329Z,9579.52
2023-05-10T10:38:08.471Z,9891.84
2023-05-10T10:39:08.622Z,10480.64
2023-05-10T10:40:08.737Z,11264
2023-05-10T10:41:08.834Z,11509.76
2023-05-10T10:42:08.988Z,11059.2
2023-05-10T10:43:09.089Z,10393.6
2023-05-10T10:44:09.263Z,9999.359
2023-05-10T10:45:09.402Z,9907.2
2023-05-10T10:46:09.552Z,10024.96
2023-05-10T10:47:09.822Z,10245.12
2023-05-10T10:48:09.849Z,10383.359
2023-05-10T10:49:09.998Z,10408.96
2023-05-10T10:50:10.093Z,10393.6
2023-05-10T10:51:12.298Z,10229.76
2023-05-10T10:52:10.356Z,9856
2023-05-10T10:53:10.541Z,9487.359
2023-05-10T10:54:10.603Z,9134.08
2023-05-10T10:55:10.725Z,8739.84
2023-05-10T10:56:10.872Z,8407.04
2023-05-10T10:57:10.969Z,8023.04
2023-05-10T10:58:11.122Z,7705.6
2023-05-10T10:59:11.219Z,7296
2023-05-10T11:00:11.312Z,6845.44
2023-05-10T11:01:11.429Z,6225.92
2023-05-10T11:02:11.508Z,5765.12
2023-05-10T11:03:11.717Z,5376
2023-05-10T11:04:11.873Z,5050.88
2023-05-10T11:05:11.915Z,4897.28
2023-05-10T11:06:12.033Z,4782.08
2023-05-10T11:07:12.173Z,4761.6
2023-05-10T11:08:12.340Z,4800
2023-05-10T11:09:12.496Z,4902.4
2023-05-10T11:10:12.649Z,5043.2
2023-05-10T11:11:12.804Z,5263.36
2023-05-10T11:12:12.930Z,5632
2023-05-10T11:13:13.036Z,5975.04
2023-05-10T11:14:13.140Z,6405.12
2023-05-10T11:15:13.250Z,6702.08
2023-05-10T11:16:13.441Z,6917.12
2023-05-10T11:17:13.532Z,7065.6
2023-05-10T11:18:13.597Z,7060.48
2023-05-10T11:19:13.846Z,7019.52
2023-05-10T11:20:13.985Z,6958.08
2023-05-10T11:21:14.071Z,6942.72
2023-05-10T11:22:14.228Z,6927.36
2023-05-10T11:23:14.296Z,6886.4
2023-05-10T11:24:14.414Z,6855.68
2023-05-10T11:25:14.533Z,6860.8
2023-05-10T11:26:14.617Z,6973.44
2023-05-10T11:27:14.716Z,7080.96
2023-05-10T11:28:14.887Z,7121.92
2023-05-10T11:29:15.038Z,7091.2
2023-05-10T11:30:15.502Z,7060.48
2023-05-10T11:31:15.351Z,6988.8
2023-05-10T11:32:15.388Z,6952.96
2023-05-10T11:33:15.526Z,6932.48
2023-05-10T11:34:15.636Z,6952.96
2023-05-10T11:35:15.734Z,6937.6
2023-05-10T11:36:15.898Z,6952.96
2023-05-10T11:37:16.023Z,6912
2023-05-10T11:38:16.123Z,7004.16
2023-05-10T11:39:16.240Z,7050.24
2023-05-10T11:40:16.606Z,7034.88
2023-05-10T11:41:16.547Z,6999.04
2023-05-10T11:42:16.654Z,6968.32
2023-05-10T11:43:16.793Z,6917.12
2023-05-10T11:44:16.921Z,6881.28
2023-05-10T11:45:16.997Z,6876.16
2023-05-10T11:46:17.181Z,6947.84
2023-05-10T11:47:17.251Z,7178.24
2023-05-10T11:48:17.387Z,7511.04
2023-05-10T11:49:17.545Z,7843.84
2023-05-10T11:50:17.800Z,8294.4
2023-05-10T11:51:17.808Z,8627.2
2023-05-10T11:52:17.919Z,8919.04
2023-05-10T11:53:18.062Z,9205.76
2023-05-10T11:54:18.208Z,9267.2
2023-05-10T11:55:18.324Z,9175.04
2023-05-10T11:56:18.477Z,9098.24
2023-05-10T11:57:18.605Z,9103.359
2023-05-10T11:58:18.731Z,9185.28
2023-05-10T11:59:18.844Z,9241.6
2023-05-10T12:00:19.089Z,9384.96
2023-05-10T12:01:19.108Z,9697.279
2023-05-10T12:02:19.230Z,10245.12
2023-05-10T12:03:19.505Z,10639.359
2023-05-10T12:04:19.616Z,11008
2023-05-10T12:05:19.671Z,11284.479
2023-05-10T12:06:19.833Z,11458.56
2023-05-10T12:07:19.940Z,11479.04
2023-05-10T12:08:20.046Z,11345.92
2023-05-10T12:09:28.252Z,11161.6
2023-05-10T12:10:20.496Z,10997.76
2023-05-10T12:11:20.444Z,10915.84
2023-05-10T12:12:20.562Z,10895.359
2023-05-10T12:13:20.787Z,10977.279
2023-05-10T12:14:20.785Z,11141.12
2023-05-10T12:15:20.937Z,11325.439
2023-05-10T12:16:21.179Z,11520
2023-05-10T12:17:21.265Z,11612.16
2023-05-10T12:18:21.411Z,11540.479
2023-05-10T12:19:21.519Z,11407.359